createdAt,value
2022-12-15T00:05:15.130Z,25.70
2022-12-15T00:10:35.343Z,26.05
2022-12-15T00:15:55.728Z,34.60
2022-12-15T00:21:17.067Z,28.80
2022-12-15T00:26:37.286Z,28.67
2022-12-15T00:31:57.486Z,27.98
2022-12-15T00:37:17.705Z,27.23
2022-12-15T00:42:19.095Z,31.42
2022-12-15T00:47:20.445Z,26.27
2022-12-15T00:59:02.257Z,28.75
2022-12-15T01:04:22.440Z,25.48
2022-12-15T01:09:42.659Z,26.00
2022-12-15T01:15:02.649Z,27.33
2022-12-15T01:20:17.887Z,24.85
2022-12-15T01:25:21.741Z,28.55
2022-12-15T01:30:25.646Z,28.80
2022-12-15T01:35:27.751Z,26.88
2022-12-15T01:40:50.166Z,25.08
2022-12-15T01:46:15.881Z,27.10
2022-12-15T01:56:19.678Z,27.40
2022-12-15T02:01:21.263Z,25.65
2022-12-15T02:06:26.018Z,24.80
2022-12-15T02:11:55.039Z,26.00
2022-12-15T02:17:05.153Z,28.15
2022-12-15T02:22:54.131Z,22.63
2022-12-15T02:28:06.405Z,29.58
2022-12-15T02:33:21.617Z,27.65
2022-12-15T02:38:35.836Z,27.38
2022-12-15T02:43:38.902Z,27.08
2022-12-15T02:48:50.222Z,27.45
2022-12-15T02:54:08.138Z,26.17
2022-12-15T02:59:21.524Z,25.65
2022-12-15T03:04:23.213Z,25.77
2022-12-15T03:09:24.662Z,22.90
2022-12-15T03:14:26.568Z,23.20
2022-12-15T03:19:28.191Z,28.13
2022-12-15T03:24:29.808Z,22.77
2022-12-15T03:29:31.186Z,22.85
2022-12-15T03:34:32.575Z,24.67
2022-12-15T03:39:34.029Z,29.88
2022-12-15T03:44:35.432Z,24.17
2022-12-15T03:49:36.934Z,24.35
2022-12-15T03:54:38.411Z,25.58
2022-12-15T03:59:39.755Z,25.27
2022-12-15T04:04:41.142Z,25.70
2022-12-15T04:09:42.555Z,23.90
2022-12-15T04:14:43.905Z,23.60
2022-12-15T04:20:03.835Z,22.15
2022-12-15T04:25:25.855Z,24.20
2022-12-15T04:30:46.106Z,24.98
2022-12-15T04:36:08.144Z,27.77
2022-12-15T04:41:28.298Z,22.20
2022-12-15T04:46:48.337Z,26.27
2022-12-15T04:52:08.315Z,26.52
2022-12-15T04:57:28.098Z,24.58
2022-12-15T05:02:48.364Z,23.65
2022-12-15T05:08:09.839Z,26.60
2022-12-15T05:13:30.446Z,29.58
2022-12-15T05:18:50.646Z,27.58
2022-12-15T05:24:11.069Z,28.88
2022-12-15T05:29:31.127Z,30.92
2022-12-15T05:34:34.501Z,24.90
2022-12-15T05:39:36.759Z,29.98
2022-12-15T05:44:38.149Z,27.85
2022-12-15T05:49:39.598Z,27.05
2022-12-15T05:54:40.940Z,25.33
2022-12-15T05:59:42.500Z,24.88
2022-12-15T06:04:43.948Z,26.40
2022-12-15T06:09:46.508Z,27.35
2022-12-15T06:14:47.856Z,23.15
2022-12-15T06:19:51.309Z,26.35
2022-12-15T06:24:52.877Z,24.30
2022-12-15T06:29:54.275Z,25.17
2022-12-15T06:34:55.690Z,24.92
2022-12-15T06:39:57.084Z,21.17
2022-12-15T06:44:58.521Z,24.00
2022-12-15T06:50:00.066Z,23.17
2022-12-15T06:55:01.534Z,22.85
2022-12-15T07:00:04.527Z,27.55
2022-12-15T07:05:06.104Z,24.45
2022-12-15T07:10:07.822Z,24.48
2022-12-15T07:15:11.200Z,23.48
2022-12-15T07:20:12.802Z,23.10
2022-12-15T07:25:14.420Z,24.63
2022-12-15T07:30:17.548Z,23.20
2022-12-15T07:35:18.999Z,30.52
2022-12-15T07:40:20.565Z,26.42
2022-12-15T07:45:21.919Z,25.95
2022-12-15T07:50:23.295Z,30.85
2022-12-15T07:55:50.063Z,24.90
2022-12-15T08:00:48.962Z,24.95
2022-12-15T08:05:50.519Z,26.08
2022-12-15T08:10:52.091Z,22.83
2022-12-15T08:15:54.952Z,21.70
2022-12-15T08:20:57.031Z,23.77
2022-12-15T08:26:11.827Z,24.08
2022-12-15T08:31:17.295Z,18.70
2022-12-15T08:36:20.538Z,21.83
2022-12-15T08:41:24.614Z,22.27
2022-12-15T08:46:28.841Z,23.17
2022-12-15T08:51:32.808Z,21.83
2022-12-15T08:56:35.617Z,23.33
2022-12-15T09:01:40.242Z,21.88
2022-12-15T09:06:42.251Z,21.88
2022-12-15T09:11:43.689Z,26.48
2022-12-15T09:16:45.178Z,25.48
2022-12-15T09:21:48.371Z,24.40
2022-12-15T09:26:49.756Z,23.15
2022-12-15T09:31:51.313Z,25.52
2022-12-15T09:36:52.864Z,30.63
2022-12-15T09:41:58.430Z,28.52
2022-12-15T09:47:12.729Z,22.85
2022-12-15T09:52:40.166Z,26.85
2022-12-15T09:57:52.669Z,26.27
2022-12-15T10:03:25.377Z,27.85
2022-12-15T10:08:31.045Z,31.05
2022-12-15T10:13:58.475Z,28.15
2022-12-15T10:19:08.430Z,23.52
2022-12-15T10:24:31.604Z,27.30
2022-12-15T10:29:45.100Z,27.77
2022-12-15T10:34:52.300Z,28.42
2022-12-15T10:39:53.844Z,28.20
2022-12-15T10:44:58.083Z,32.13
2022-12-15T10:50:25.023Z,31.15
2022-12-15T10:55:40.293Z,32.72
2022-12-15T11:00:41.807Z,31.25
2022-12-15T11:05:52.258Z,36.35
2022-12-15T11:11:15.821Z,28.08
2022-12-15T11:16:19.837Z,30.30
2022-12-15T11:21:28.505Z,28.38
2022-12-15T11:27:03.906Z,28.58
2022-12-15T11:32:07.580Z,30.60
2022-12-15T11:37:24.041Z,31.98
2022-12-15T11:42:52.164Z,32.70
2022-12-15T11:48:19.448Z,29.48
2022-12-15T11:53:34.676Z,30.35
2022-12-15T11:58:54.122Z,28.85
2022-12-15T12:04:14.943Z,28.05
2022-12-15T12:09:32.963Z,29.25
2022-12-15T12:14:50.568Z,29.48
2022-12-15T12:19:58.803Z,28.33
2022-12-15T12:25:04.374Z,30.85
2022-12-15T12:30:14.005Z,27.38
2022-12-15T12:35:33.732Z,28.73
2022-12-15T12:40:41.181Z,28.80
2022-12-15T12:45:54.481Z,28.30
2022-12-15T12:51:34.225Z,29.95
2022-12-15T12:56:50.461Z,28.80
2022-12-15T13:01:52.183Z,27.70
2022-12-15T13:06:59.965Z,33.05
2022-12-15T13:12:15.011Z,31.75
2022-12-15T13:17:29.263Z,30.70
2022-12-15T13:22:35.689Z,27.73
2022-12-15T13:27:40.647Z,30.92
2022-12-15T13:32:45.985Z,29.67
2022-12-15T13:42:59.702Z,29.17
2022-12-15T13:48:05.473Z,24.90
2022-12-15T13:53:20.903Z,29.42
2022-12-15T14:03:25.776Z,24.90
2022-12-15T14:08:30.147Z,28.17
2022-12-15T14:13:36.200Z,27.52
2022-12-15T14:18:41.245Z,29.38
2022-12-15T14:24:19.102Z,28.33
2022-12-15T14:29:06.777Z,29.83
2022-12-15T14:34:15.219Z,31.90
2022-12-15T14:39:23.130Z,29.92
2022-12-15T14:44:38.251Z,26.25
2022-12-15T14:49:43.252Z,26.63
2022-12-15T14:54:57.233Z,25.50
2022-12-15T15:00:32.687Z,26.67
2022-12-15T15:05:34.163Z,28.70
2022-12-15T15:10:35.588Z,26.83
2022-12-15T15:15:37.316Z,29.48
2022-12-15T15:20:38.924Z,30.85
2022-12-15T15:25:48.996Z,29.13
2022-12-15T15:30:57.270Z,27.52
2022-12-15T15:36:02.265Z,29.73
2022-12-15T15:41:17.307Z,27.67
2022-12-15T15:46:22.607Z,30.35
2022-12-15T15:56:27.428Z,28.52
2022-12-15T16:01:28.876Z,26.60
2022-12-15T16:06:30.286Z,27.73
2022-12-15T16:11:32.475Z,29.92
2022-12-15T16:16:34.534Z,24.88
2022-12-15T16:21:36.388Z,26.17
2022-12-15T16:26:38.917Z,28.45
2022-12-15T16:31:45.118Z,25.58
2022-12-15T16:36:46.852Z,25.08
2022-12-15T16:41:48.793Z,25.35
2022-12-15T16:46:50.202Z,25.73
2022-12-15T16:51:53.334Z,27.98
2022-12-15T16:56:56.511Z,23.73
2022-12-15T17:01:57.919Z,25.52
2022-12-15T17:06:59.406Z,25.95
2022-12-15T17:12:01.386Z,25.30
2022-12-15T17:17:02.912Z,24.90
2022-12-15T17:22:04.321Z,25.75
2022-12-15T17:27:05.736Z,24.50
2022-12-15T17:32:12.754Z,24.70
2022-12-15T17:37:14.520Z,23.08
2022-12-15T17:42:20.355Z,22.23
2022-12-15T17:47:24.092Z,23.58
2022-12-15T17:52:30.801Z,24.58
2022-12-15T17:57:32.127Z,23.55
2022-12-15T18:02:34.151Z,24.40
2022-12-15T18:07:36.120Z,22.30
2022-12-15T18:12:37.564Z,22.83
2022-12-15T18:17:39.077Z,25.35
2022-12-15T18:22:40.624Z,26.52
2022-12-15T18:27:42.211Z,25.75
2022-12-15T18:32:44.404Z,29.35
2022-12-15T18:37:47.283Z,25.38
2022-12-15T18:42:49.001Z,24.35
2022-12-15T18:47:51.531Z,24.27
2022-12-15T18:52:59.787Z,25.40
2022-12-15T18:58:01.797Z,26.75
2022-12-15T19:03:03.415Z,27.90
2022-12-15T19:08:25.589Z,25.52
2022-12-15T19:13:32.922Z,31.00
2022-12-15T19:18:52.913Z,22.20
2022-12-15T19:23:54.416Z,24.00
2022-12-15T19:28:55.915Z,24.42
2022-12-15T19:33:57.503Z,24.88
2022-12-15T19:38:58.936Z,22.98
2022-12-15T19:44:00.427Z,24.23
2022-12-15T19:49:01.887Z,22.48
2022-12-15T19:54:03.982Z,21.40
2022-12-15T19:59:05.623Z,20.15
2022-12-15T20:04:07.022Z,20.77
2022-12-15T20:09:13.463Z,19.95
2022-12-15T20:14:17.352Z,19.00
2022-12-15T20:19:18.853Z,19.40
2022-12-15T20:24:20.363Z,18.00
2022-12-15T20:29:30.898Z,21.17
2022-12-15T20:34:32.335Z,19.15
2022-12-15T20:39:33.946Z,21.63
2022-12-15T20:44:35.419Z,19.02
2022-12-15T20:49:36.798Z,19.38
2022-12-15T20:54:38.218Z,20.05
2022-12-15T20:59:41.318Z,19.90
2022-12-15T21:04:42.820Z,19.13
2022-12-15T21:09:44.216Z,19.05
2022-12-15T21:14:45.637Z,19.85
2022-12-15T21:19:47.352Z,20.77
2022-12-15T21:24:54.547Z,17.45
2022-12-15T21:29:56.248Z,21.20
2022-12-15T21:34:57.751Z,20.65
2022-12-15T21:39:59.878Z,21.13
2022-12-15T21:45:01.228Z,18.98
2022-12-15T21:50:02.703Z,19.63
2022-12-15T21:55:18.885Z,19.98
2022-12-15T22:00:21.292Z,18.17
2022-12-15T22:05:32.419Z,19.88
2022-12-15T22:10:33.965Z,22.83
2022-12-15T22:15:35.374Z,20.83
2022-12-15T22:20:36.714Z,20.10
2022-12-15T22:25:38.071Z,18.65
2022-12-15T22:30:39.509Z,19.80
2022-12-15T22:35:40.904Z,17.38
2022-12-15T22:40:43.246Z,16.77
2022-12-15T22:45:44.926Z,18.13
2022-12-15T22:50:46.366Z,17.08
2022-12-15T22:55:49.543Z,17.10
2022-12-15T23:00:54.866Z,18.02
2022-12-15T23:05:56.613Z,18.10
2022-12-15T23:11:18.759Z,16.15
2022-12-15T23:16:21.226Z,14.32
2022-12-15T23:21:23.976Z,15.05
2022-12-15T23:26:26.260Z,15.07
2022-12-15T23:31:27.694Z,16.05
2022-12-15T23:36:29.134Z,14.60
2022-12-15T23:41:30.495Z,14.85
2022-12-15T23:46:31.911Z,12.80
2022-12-15T23:51:33.262Z,15.35
2022-12-15T23:56:34.682Z,15.35
